Time;durP1;ratioP1;P1;durP2;ratioP2;P2;SDS_P1;SDS_P2;PMS_P1;PMS_P2;Temp;Humidity;BMP_temperature;BMP_pressure;BME280_temperature;BME280_humidity;BME280_pressure;Samples;Min_cycle;Max_cycle;Signal;HPM_P1;HPM_P2
2022/08/05 00:00:21;;;;;;;7.18;4.93;;;18.70;99.90;;;;;;5057315;28;20107;-74
2022/08/05 00:02:50;;;;;;;7.70;5.20;;;18.70;99.90;;;;;;5056837;28;20120;-76
2022/08/05 00:05:18;;;;;;;7.93;4.90;;;18.70;99.90;;;;;;5056922;28;20458;-75
2022/08/05 00:07:45;;;;;;;11.48;5.40;;;18.60;99.90;;;;;;5057408;28;20049;-74
2022/08/05 00:10:12;;;;;;;7.20;5.35;;;18.60;99.90;;;;;;5057908;28;20496;-75
2022/08/05 00:12:39;;;;;;;8.32;4.97;;;18.60;99.90;;;;;;5056569;28;20033;-76
2022/08/05 00:15:09;;;;;;;9.27;5.22;;;18.60;99.90;;;;;;5057014;28;20127;-76
2022/08/05 00:17:36;;;;;;;14.10;5.38;;;18.60;99.90;;;;;;5060881;28;20069;-74
2022/08/05 00:20:06;;;;;;;7.53;4.80;;;18.50;99.90;;;;;;5058923;28;20037;-75
2022/08/05 00:22:35;;;;;;;6.82;5.10;;;18.60;99.90;;;;;;5057169;28;20052;-75
2022/08/05 00:25:02;;;;;;;7.07;4.47;;;18.40;99.90;;;;;;5057583;28;20041;-75
2022/08/05 00:27:29;;;;;;;5.25;4.47;;;18.40;99.90;;;;;;5078155;28;20040;-75
2022/08/05 00:29:57;;;;;;;6.38;4.80;;;18.30;99.90;;;;;;5069783;28;20047;-76
2022/08/05 00:32:24;;;;;;;6.40;4.85;;;18.30;99.90;;;;;;5076334;28;20476;-75
2022/08/05 00:34:51;;;;;;;7.20;4.65;;;18.30;99.90;;;;;;5076308;28;20044;-74
2022/08/05 00:37:20;;;;;;;7.78;4.93;;;18.30;99.90;;;;;;5075965;28;20511;-75
2022/08/05 00:39:47;;;;;;;6.53;4.70;;;18.30;99.90;;;;;;5076006;28;20044;-75
2022/08/05 00:42:15;;;;;;;9.68;5.07;;;18.20;99.90;;;;;;5065888;28;20029;-75
2022/08/05 00:44:43;;;;;;;7.00;5.22;;;18.10;99.90;;;;;;5055515;28;20489;-74
2022/08/05 00:47:10;;;;;;;9.95;5.00;;;18.10;99.90;;;;;;5054656;28;20041;-74
2022/08/05 00:49:37;;;;;;;7.60;4.80;;;18.00;99.90;;;;;;5055990;28;20079;-75
2022/08/05 00:52:05;;;;;;;8.10;5.00;;;18.00;99.90;;;;;;5055680;28;20041;-75
2022/08/05 00:54:33;;;;;;;7.07;4.82;;;18.00;99.90;;;;;;5053968;28;20052;-74
2022/08/05 00:57:01;;;;;;;7.90;5.22;;;18.00;99.90;;;;;;5041746;28;20032;-74
2022/08/05 00:59:28;;;;;;;6.38;4.65;;;17.90;99.90;;;;;;5056444;28;20127;-74
2022/08/05 01:01:55;;;;;;;6.53;5.00;;;18.00;99.90;;;;;;5055794;28;20037;-74
2022/08/05 01:04:23;;;;;;;8.18;5.13;;;17.90;99.90;;;;;;5055449;28;20100;-74
2022/08/05 01:06:50;;;;;;;7.97;5.00;;;17.90;99.90;;;;;;5055272;28;20048;-75
2022/08/05 01:09:17;;;;;;;9.50;5.18;;;17.90;99.90;;;;;;5055425;28;20083;-73
2022/08/05 01:11:50;;;;;;;10.73;5.15;;;17.80;99.90;;;;;;5054945;28;20075;-75
2022/08/05 01:14:23;;;;;;;7.90;5.03;;;17.80;99.90;;;;;;5054927;28;20098;-75
2022/08/05 01:16:54;;;;;;;8.23;5.05;;;17.80;99.90;;;;;;5055143;28;20041;-75
2022/08/05 01:19:34;;;;;;;8.82;5.18;;;17.80;99.90;;;;;;5055416;28;20098;-75
2022/08/05 01:22:18;;;;;;;6.72;5.13;;;17.70;99.90;;;;;;5055117;28;20037;-75
2022/08/05 01:24:59;;;;;;;8.15;5.40;;;17.70;99.90;;;;;;5055046;28;20041;-74
2022/08/05 01:27:48;;;;;;;9.23;5.20;;;17.70;99.90;;;;;;5037515;28;20045;-74
2022/08/05 01:30:16;;;;;;;7.22;5.32;;;17.60;99.90;;;;;;5056022;28;20052;-77
2022/08/05 01:32:46;;;;;;;7.43;5.63;;;17.50;99.90;;;;;;5054344;28;20423;-75
2022/08/05 01:35:17;;;;;;;9.27;5.30;;;17.50;99.90;;;;;;5054885;28;20450;-75
2022/08/05 01:37:47;;;;;;;7.70;5.90;;;17.50;99.90;;;;;;5054822;28;20496;-75
2022/08/05 01:40:17;;;;;;;15.68;11.50;;;17.50;99.90;;;;;;5054390;28;20045;-75
2022/08/05 01:42:49;;;;;;;9.57;5.97;;;17.50;99.90;;;;;;5054719;28;20099;-75
2022/08/05 01:45:19;;;;;;;9.48;5.43;;;17.50;99.90;;;;;;5054976;28;20044;-76
2022/08/05 01:47:49;;;;;;;11.30;7.43;;;17.50;99.90;;;;;;5054948;28;20045;-75
2022/08/05 01:50:19;;;;;;;9.23;6.13;;;17.40;99.90;;;;;;5054599;28;20114;-75
2022/08/05 01:52:48;;;;;;;7.05;6.13;;;17.40;99.90;;;;;;5054360;28;20044;-75
2022/08/05 01:55:18;;;;;;;10.73;7.20;;;17.30;99.90;;;;;;5055106;28;20036;-75
2022/08/05 01:57:48;;;;;;;11.15;5.80;;;17.30;99.90;;;;;;5036840;28;20095;-75
2022/08/05 02:00:17;;;;;;;7.97;5.70;;;17.20;99.90;;;;;;5055082;28;20041;-75
2022/08/05 02:02:50;;;;;;;7.50;6.22;;;17.20;99.90;;;;;;5054670;28;20071;-77
2022/08/05 02:05:20;;;;;;;8.68;6.05;;;17.20;99.90;;;;;;5055303;28;20063;-75
2022/08/05 02:07:48;;;;;;;9.05;6.20;;;17.10;99.90;;;;;;5056433;28;20095;-75
2022/08/05 02:10:15;;;;;;;7.80;5.78;;;17.10;99.90;;;;;;5072475;28;20110;-74
2022/08/05 02:12:49;;;;;;;6.57;5.68;;;17.10;99.90;;;;;;5069495;28;20073;-74
2022/08/05 02:15:22;;;;;;;11.52;5.38;;;17.10;99.90;;;;;;5060597;28;20450;-76
2022/08/05 02:17:58;;;;;;;8.52;6.13;;;17.10;99.90;;;;;;5059442;28;20041;-73
2022/08/05 02:20:30;;;;;;;8.98;6.50;;;17.00;99.90;;;;;;5068322;28;20064;-75
2022/08/05 02:23:01;;;;;;;7.95;5.43;;;17.00;99.90;;;;;;5059700;28;20102;-74
2022/08/05 02:25:31;;;;;;;7.28;5.60;;;17.00;99.90;;;;;;5036057;28;20389;-75
2022/08/05 02:28:01;;;;;;;8.82;5.63;;;17.00;99.90;;;;;;5053852;28;20068;-75
2022/08/05 02:30:38;;;;;;;5.85;4.95;;;17.00;99.90;;;;;;5071638;28;20557;-74
2022/08/05 02:33:06;;;;;;;;;;;17.00;99.90;;;;;;5034312;28;20518;-75
2022/08/05 02:35:35;;;;;;;8.48;6.10;;;17.00;99.90;;;;;;5034145;28;19925;-75
2022/08/05 02:38:03;;;;;;;7.60;5.70;;;17.00;99.90;;;;;;5034115;28;20579;-75
2022/08/05 02:40:32;;;;;;;8.02;6.32;;;16.90;99.90;;;;;;5034797;28;20049;-75
2022/08/05 02:43:02;;;;;;;9.15;5.75;;;16.90;99.90;;;;;;5033984;28;20052;-75
2022/08/05 02:45:32;;;;;;;7.05;6.22;;;16.90;99.90;;;;;;5034313;28;20045;-74
2022/08/05 02:48:01;;;;;;;7.03;5.93;;;16.80;99.90;;;;;;5033866;28;20056;-74
2022/08/05 02:50:29;;;;;;;8.57;6.10;;;16.80;99.90;;;;;;5034274;28;20057;-75
2022/08/05 02:52:57;;;;;;;7.75;6.30;;;16.70;99.90;;;;;;5046415;28;20046;-75
2022/08/05 02:55:25;;;;;;;8.85;5.93;;;16.70;99.90;;;;;;5063234;28;20071;-74
2022/08/05 02:57:52;;;;;;;11.02;6.03;;;16.70;99.90;;;;;;5065159;28;20075;-75
2022/08/05 03:00:21;;;;;;;10.52;6.07;;;16.70;99.90;;;;;;5075068;28;20056;-75
2022/08/05 03:02:49;;;;;;;7.75;6.25;;;16.70;99.90;;;;;;5076060;28;20045;-74
2022/08/05 03:05:17;;;;;;;9.68;6.38;;;16.60;99.90;;;;;;5076209;28;20060;-75
2022/08/05 03:07:45;;;;;;;7.53;6.75;;;16.60;99.90;;;;;;5077503;28;20021;-74
2022/08/05 03:10:15;;;;;;;7.95;6.30;;;16.60;99.90;;;;;;5067704;28;20052;-76
2022/08/05 03:12:42;;;;;;;8.45;6.55;;;16.60;99.90;;;;;;5057384;28;20454;-75
2022/08/05 03:15:11;;;;;;;7.68;6.68;;;16.60;99.90;;;;;;5058130;28;20045;-75
2022/08/05 03:17:39;;;;;;;11.13;6.75;;;16.50;99.90;;;;;;5057469;28;20094;-75
2022/08/05 03:20:08;;;;;;;8.77;6.95;;;16.50;99.90;;;;;;5039596;28;20110;-74
2022/08/05 03:22:35;;;;;;;10.50;6.63;;;16.50;99.90;;;;;;5057342;28;20045;-76
2022/08/05 03:25:03;;;;;;;11.82;6.85;;;16.50;99.90;;;;;;5057213;28;20554;-75
2022/08/05 03:27:31;;;;;;;9.05;6.80;;;16.40;99.90;;;;;;5068690;28;20037;-74
2022/08/05 03:29:58;;;;;;;8.57;6.57;;;16.40;99.90;;;;;;5092281;28;20037;-74
2022/08/05 03:32:26;;;;;;;11.65;6.68;;;16.40;99.90;;;;;;5059247;28;20053;-75
2022/08/05 03:34:55;;;;;;;8.63;6.70;;;16.50;99.90;;;;;;5046337;28;20052;-74
2022/08/05 03:37:22;;;;;;;9.52;6.78;;;16.50;99.90;;;;;;5058218;28;20095;-75
2022/08/05 03:39:54;;;;;;;8.50;6.65;;;16.50;99.90;;;;;;5061458;28;20549;-74
2022/08/05 03:42:22;;;;;;;9.93;6.90;;;16.40;99.90;;;;;;5061943;28;20047;-74
2022/08/05 03:44:49;;;;;;;15.05;7.65;;;16.40;99.90;;;;;;5057622;28;20418;-74
2022/08/05 03:47:16;;;;;;;9.45;7.38;;;16.40;99.90;;;;;;5039609;28;20052;-75
2022/08/05 03:49:44;;;;;;;9.68;8.18;;;16.40;99.90;;;;;;5057212;28;20052;-75
2022/08/05 03:52:18;;;;;;;10.43;8.18;;;16.40;99.90;;;;;;5057015;28;20045;-75
2022/08/05 03:54:51;;;;;;;12.00;7.60;;;16.40;99.90;;;;;;5038629;28;20491;-75
2022/08/05 03:57:24;;;;;;;10.00;6.93;;;16.40;99.90;;;;;;5038773;28;20045;-75
2022/08/05 03:59:57;;;;;;;11.43;7.78;;;16.50;99.90;;;;;;5057105;28;20045;-75
2022/08/05 04:02:28;;;;;;;15.60;8.32;;;16.50;99.90;;;;;;5056827;28;20500;-75
2022/08/05 04:04:57;;;;;;;15.95;7.65;;;16.50;99.90;;;;;;5057244;28;20120;-75
2022/08/05 04:07:26;;;;;;;39.08;13.18;;;16.70;99.90;;;;;;5056526;28;20067;-74
2022/08/05 04:09:54;;;;;;;9.57;6.80;;;16.90;99.90;;;;;;5056671;28;20033;-76
2022/08/05 04:12:22;;;;;;;15.65;8.10;;;17.20;99.90;;;;;;5060672;28;20040;-74
2022/08/05 04:14:50;;;;;;;20.15;8.13;;;17.80;99.90;;;;;;5068859;28;20094;-74
2022/08/05 04:17:18;;;;;;;14.70;7.18;;;18.40;99.90;;;;;;5068787;28;20045;-75
2022/08/05 04:19:47;;;;;;;13.52;6.45;;;19.00;99.90;;;;;;5056645;28;20041;-74
2022/08/05 04:22:15;;;;;;;13.02;6.53;;;19.50;99.90;;;;;;5056650;28;20076;-75
2022/08/05 04:24:45;;;;;;;16.20;6.80;;;20.10;99.90;;;;;;5060522;28;20067;-74
2022/08/05 04:27:13;;;;;;;18.85;6.13;;;20.60;99.90;;;;;;5066445;28;20052;-74
2022/08/05 04:29:41;;;;;;;9.18;6.82;;;20.70;99.90;;;;;;5069175;28;20045;-75
2022/08/05 04:32:09;;;;;;;10.32;6.40;;;20.70;99.90;;;;;;5067128;28;20045;-75
2022/08/05 04:34:36;;;;;;;11.73;6.72;;;20.90;99.90;;;;;;5067369;28;20049;-75
2022/08/05 04:37:04;;;;;;;11.23;6.53;;;21.30;99.90;;;;;;5062439;28;20053;-75
2022/08/05 04:39:33;;;;;;;12.75;6.18;;;21.80;99.90;;;;;;5056489;28;20045;-76
2022/08/05 04:42:01;;;;;;;13.90;6.60;;;22.60;99.90;;;;;;5038589;28;20041;-76
2022/08/05 04:44:29;;;;;;;14.35;6.20;;;23.20;99.90;;;;;;5037800;28;20404;-76
2022/08/05 04:46:56;;;;;;;13.63;6.45;;;23.50;99.90;;;;;;5056483;28;20467;-75
2022/08/05 04:49:24;;;;;;;12.80;6.20;;;23.30;99.90;;;;;;5055782;28;20550;-77
2022/08/05 04:51:51;;;;;;;12.48;6.72;;;22.90;99.90;;;;;;5056231;28;20045;-75
2022/08/05 04:54:18;;;;;;;17.90;6.88;;;22.20;99.90;;;;;;5057053;28;20041;-75
2022/08/05 04:56:46;;;;;;;11.18;6.68;;;21.70;99.90;;;;;;5056674;28;20404;-75
2022/08/05 04:59:16;;;;;;;10.20;6.90;;;21.40;99.90;;;;;;5040050;28;20040;-75
2022/08/05 05:01:43;;;;;;;12.57;5.80;;;21.30;99.90;;;;;;5056476;28;20041;-75
2022/08/05 05:04:10;;;;;;;10.07;7.50;;;21.10;99.90;;;;;;5056260;28;20107;-75
2022/08/05 05:06:38;;;;;;;12.07;6.78;;;21.20;99.90;;;;;;5056145;28;20087;-75
2022/08/05 05:09:05;;;;;;;18.92;7.20;;;21.10;99.90;;;;;;5055866;28;20106;-76
2022/08/05 05:11:32;;;;;;;21.05;9.30;;;21.10;99.90;;;;;;5056063;28;20120;-76
2022/08/05 05:13:59;;;;;;;14.48;6.80;;;21.10;99.90;;;;;;5055224;28;20119;-76
2022/08/05 05:16:29;;;;;;;26.35;7.40;;;21.30;99.90;;;;;;5056894;28;20099;-76
2022/08/05 05:18:56;;;;;;;20.85;7.45;;;21.40;99.90;;;;;;5056307;28;20083;-76
2022/08/05 05:21:24;;;;;;;18.40;8.27;;;21.60;99.90;;;;;;5055600;28;20570;-75
2022/08/05 05:23:51;;;;;;;16.98;9.85;;;21.90;99.90;;;;;;5054470;28;20044;-75
2022/08/05 05:26:18;;;;;;;14.50;7.60;;;22.60;99.90;;;;;;5055547;28;20040;-76
2022/08/05 05:28:46;;;;;;;21.90;10.30;;;23.50;99.90;;;;;;5055351;28;20110;-76
2022/08/05 05:31:13;;;;;;;23.55;12.75;;;24.10;99.90;;;;;;5055219;28;20076;-75
2022/08/05 05:33:42;;;;;;;20.90;12.82;;;24.60;99.90;;;;;;5053197;28;20174;-76
2022/08/05 05:36:10;;;;;;;18.05;8.85;;;25.20;99.90;;;;;;5054427;28;20048;-75
2022/08/05 05:38:37;;;;;;;20.58;13.88;;;25.40;99.90;;;;;;5054918;28;20045;-75
2022/08/05 05:41:04;;;;;;;19.60;8.70;;;25.50;99.90;;;;;;5055530;28;20052;-76
2022/08/05 05:43:32;;;;;;;23.05;8.05;;;25.70;99.90;;;;;;5054264;28;20057;-77
2022/08/05 05:45:59;;;;;;;14.02;7.18;;;25.40;99.90;;;;;;5054483;28;20041;-76
2022/08/05 05:48:26;;;;;;;17.65;6.65;;;25.30;99.90;;;;;;5044209;28;20049;-75
2022/08/05 05:50:55;;;;;;;16.17;6.85;;;25.40;99.90;;;;;;5055220;28;20102;-76
2022/08/05 05:53:22;;;;;;;14.18;6.97;;;25.40;99.90;;;;;;5036399;28;20099;-75
2022/08/05 05:55:50;;;;;;;16.73;6.60;;;25.30;99.90;;;;;;5054505;28;20104;-76
2022/08/05 05:58:17;;;;;;;15.70;6.60;;;25.30;99.90;;;;;;5053637;28;20072;-75
2022/08/05 06:00:44;;;;;;;10.85;6.65;;;25.40;99.90;;;;;;5054132;28;20052;-76
2022/08/05 06:03:12;;;;;;;15.40;6.60;;;25.60;99.90;;;;;;5035817;28;20049;-75
2022/08/05 06:05:39;;;;;;;18.08;6.97;;;25.80;99.90;;;;;;5061362;28;20098;-75
2022/08/05 06:08:09;;;;;;;17.13;8.63;;;25.80;99.90;;;;;;5065585;28;20043;-76
2022/08/05 06:10:36;;;;;;;15.70;8.70;;;25.90;99.90;;;;;;5083601;28;20055;-75
2022/08/05 06:13:06;;;;;;;14.50;8.25;;;26.00;99.90;;;;;;5069561;28;20045;-76
2022/08/05 06:15:33;;;;;;;16.77;7.28;;;26.00;99.90;;;;;;5055337;28;20072;-76
2022/08/05 06:18:01;;;;;;;17.15;6.90;;;26.30;99.90;;;;;;5054650;28;20053;-76
2022/08/05 06:20:28;;;;;;;13.65;6.78;;;26.40;99.90;;;;;;5054632;28;20382;-74
2022/08/05 06:22:55;;;;;;;9.38;5.30;;;25.90;99.90;;;;;;5035911;28;20137;-75
2022/08/05 06:25:24;;;;;;;12.73;5.78;;;25.80;99.90;;;;;;5054823;28;20379;-76
2022/08/05 06:27:52;;;;;;;12.32;6.20;;;26.00;99.90;;;;;;5054433;28;20515;-76
2022/08/05 06:30:19;;;;;;;15.23;6.03;;;26.40;99.90;;;;;;5062765;28;20476;-76
2022/08/05 06:32:46;;;;;;;10.88;7.05;;;26.80;99.90;;;;;;5054185;28;20120;-75
2022/08/05 06:35:14;;;;;;;11.65;7.05;;;27.20;99.90;;;;;;5053331;28;20032;-76
2022/08/05 06:37:41;;;;;;;16.30;7.90;;;27.40;99.90;;;;;;5053610;28;20045;-75
2022/08/05 06:40:10;;;;;;;18.65;9.57;;;27.60;99.90;;;;;;5054050;28;20541;-76
2022/08/05 06:42:39;;;;;;;11.05;8.60;;;27.80;99.90;;;;;;5053561;28;20116;-75
2022/08/05 06:45:07;;;;;;;21.70;9.43;;;27.90;98.70;;;;;;5054350;28;20036;-76
2022/08/05 06:47:35;;;;;;;13.60;8.95;;;28.00;97.60;;;;;;5054335;28;20091;-76
2022/08/05 06:50:02;;;;;;;15.95;10.13;;;28.10;97.20;;;;;;5055974;28;20036;-77
2022/08/05 06:52:29;;;;;;;22.45;8.38;;;28.20;96.60;;;;;;5055845;28;20480;-76
2022/08/05 06:54:57;;;;;;;21.23;9.38;;;28.50;95.70;;;;;;5053549;28;20033;-75
2022/08/05 06:57:24;;;;;;;18.08;9.48;;;28.60;95.30;;;;;;5053900;28;20215;-75
2022/08/05 06:59:53;;;;;;;20.88;10.13;;;28.80;94.90;;;;;;5054379;28;20389;-75
2022/08/05 07:02:20;;;;;;;21.35;10.70;;;29.00;94.20;;;;;;5053643;28;20577;-76
2022/08/05 07:04:47;;;;;;;24.70;13.05;;;29.00;93.90;;;;;;5052991;28;20086;-75
2022/08/05 07:07:15;;;;;;;21.60;12.02;;;29.30;93.40;;;;;;5052748;28;20041;-77
2022/08/05 07:09:42;;;;;;;19.90;13.80;;;29.40;92.50;;;;;;5052427;28;20041;-75
2022/08/05 07:16:47;;;;;;;13.65;9.57;;;29.60;92.00;;;;;;5049919;28;20037;-76
2022/08/05 07:17:43;;;;;;;14.13;7.50;;;29.70;90.10;;;;;;5052865;28;20411;-75
2022/08/05 07:20:10;;;;;;;15.40;9.13;;;29.50;89.80;;;;;;5035602;28;20064;-75
2022/08/05 07:22:38;;;;;;;13.57;8.20;;;29.40;90.00;;;;;;5053493;28;20049;-76
2022/08/05 07:25:07;;;;;;;14.00;8.48;;;29.30;90.20;;;;;;5053326;28;20082;-75
2022/08/05 07:27:34;;;;;;;12.23;7.80;;;29.20;90.70;;;;;;5035625;28;20052;-76
2022/08/05 07:30:03;;;;;;;14.27;8.77;;;29.40;90.80;;;;;;5037007;28;20049;-74
2022/08/05 07:32:35;;;;;;;13.18;8.98;;;29.50;90.40;;;;;;5054379;28;20049;-75
2022/08/05 07:35:02;;;;;;;13.30;10.60;;;29.60;89.70;;;;;;5054025;28;20071;-76
2022/08/05 07:37:30;;;;;;;13.75;7.82;;;29.90;88.70;;;;;;5053917;28;20053;-75
2022/08/05 07:39:57;;;;;;;9.27;6.70;;;30.20;84.70;;;;;;5053342;28;20045;-75
2022/08/05 07:42:24;;;;;;;16.48;11.25;;;30.50;82.70;;;;;;5035879;28;20492;-76
2022/08/05 07:44:51;;;;;;;15.48;10.45;;;30.80;83.10;;;;;;5054073;28;20102;-76
2022/08/05 07:47:20;;;;;;;12.57;8.77;;;30.90;84.40;;;;;;5053920;28;20072;-76
2022/08/05 07:49:47;;;;;;;10.32;8.45;;;30.70;85.20;;;;;;5054391;28;20045;-76
2022/08/05 07:52:15;;;;;;;18.27;8.43;;;30.70;85.20;;;;;;5035712;28;20049;-75
2022/08/05 07:54:42;;;;;;;17.75;7.72;;;30.90;86.10;;;;;;5053929;28;20041;-75
2022/08/05 07:57:09;;;;;;;13.48;6.40;;;31.00;87.20;;;;;;5056880;28;20041;-76
2022/08/05 07:59:37;;;;;;;12.05;6.90;;;30.90;86.60;;;;;;5057361;28;20558;-76
2022/08/05 08:02:06;;;;;;;15.57;8.50;;;31.10;86.60;;;;;;5062767;28;20041;-76
2022/08/05 08:04:34;;;;;;;14.77;11.07;;;31.20;85.90;;;;;;5064338;28;20568;-76
2022/08/05 08:07:02;;;;;;;12.82;9.30;;;31.20;85.40;;;;;;5057152;28;20045;-77
2022/08/05 08:09:29;;;;;;;14.30;7.60;;;31.40;85.70;;;;;;5056539;28;20100;-76
2022/08/05 08:11:56;;;;;;;9.70;7.93;;;31.60;84.40;;;;;;5056681;28;20071;-75
2022/08/05 08:14:23;;;;;;;7.95;6.70;;;31.50;83.40;;;;;;5056184;28;20041;-76
2022/08/05 08:16:50;;;;;;;9.90;6.97;;;31.50;83.30;;;;;;5056642;28;20048;-76
2022/08/05 08:19:18;;;;;;;13.98;9.00;;;31.80;83.20;;;;;;5056420;28;20044;-75
2022/08/05 08:21:46;;;;;;;15.32;8.65;;;32.00;82.60;;;;;;5056592;28;20538;-75
2022/08/05 08:24:14;;;;;;;14.48;7.32;;;32.20;81.50;;;;;;5056232;28;20041;-76
2022/08/05 08:26:41;;;;;;;11.23;7.53;;;32.20;80.90;;;;;;5056410;28;20535;-77
2022/08/05 08:29:08;;;;;;;12.57;8.95;;;32.20;79.50;;;;;;5062554;28;20517;-76
2022/08/05 08:31:35;;;;;;;10.68;7.53;;;32.30;79.70;;;;;;5076928;28;20453;-75
2022/08/05 08:34:03;;;;;;;9.88;6.97;;;32.30;78.10;;;;;;5091896;28;20067;-76
2022/08/05 08:36:31;;;;;;;13.32;8.30;;;32.40;78.30;;;;;;5097077;28;20044;-75
2022/08/05 08:38:59;;;;;;;12.00;8.35;;;32.50;76.40;;;;;;5096282;28;20074;-76
2022/08/05 08:41:33;;;;;;;11.95;7.47;;;32.50;73.70;;;;;;5078570;28;20052;-75
2022/08/05 08:44:02;;;;;;;6.35;5.40;;;32.60;72.90;;;;;;5077151;28;20514;-76
2022/08/05 08:46:31;;;;;;;9.88;6.20;;;32.70;70.20;;;;;;5076357;28;20051;-76
2022/08/05 08:48:59;;;;;;;10.10;6.10;;;32.60;69.90;;;;;;5077418;28;20041;-77
2022/08/05 08:51:31;;;;;;;9.70;5.60;;;32.90;69.90;;;;;;5076313;28;20376;-75
2022/08/05 08:54:00;;;;;;;9.93;5.80;;;33.10;66.40;;;;;;5076821;28;20415;-76
2022/08/05 08:56:28;;;;;;;5.75;4.63;;;33.10;64.90;;;;;;5059370;28;20114;-76
2022/08/05 08:58:58;;;;;;;5.15;3.90;;;33.00;60.90;;;;;;5057189;28;20503;-75
2022/08/05 09:01:25;;;;;;;5.70;3.65;;;32.80;57.40;;;;;;5056154;28;20120;-75
2022/08/05 09:03:55;;;;;;;4.70;3.60;;;32.90;55.80;;;;;;5056383;28;20484;-75
2022/08/05 09:06:23;;;;;;;7.55;4.13;;;33.00;55.00;;;;;;5057049;28;20106;-75
2022/08/05 09:08:50;;;;;;;5.75;3.55;;;33.10;54.00;;;;;;5056361;28;20055;-77
2022/08/05 09:11:19;;;;;;;6.05;4.03;;;33.10;53.20;;;;;;5056841;28;20044;-75
2022/08/05 09:13:46;;;;;;;5.03;3.85;;;32.90;52.90;;;;;;5056142;28;20099;-76
2022/08/05 09:16:14;;;;;;;5.60;4.07;;;33.00;52.90;;;;;;5056217;28;20558;-77
2022/08/05 09:18:43;;;;;;;4.70;4.03;;;33.20;53.50;;;;;;5055180;28;20037;-77
2022/08/05 09:21:10;;;;;;;6.55;3.90;;;33.30;52.50;;;;;;5055373;28;20055;-76
2022/08/05 09:23:38;;;;;;;5.55;3.95;;;33.20;52.00;;;;;;5054968;28;20040;-76
2022/08/05 09:26:09;;;;;;;12.80;5.75;;;33.00;52.30;;;;;;5036904;28;20055;-76
2022/08/05 09:28:39;;;;;;;5.18;3.70;;;33.20;52.10;;;;;;5055433;28;20056;-76
2022/08/05 09:31:10;;;;;;;3.72;3.30;;;33.00;51.50;;;;;;5055249;28;20036;-76
2022/08/05 09:33:48;;;;;;;14.65;5.50;;;32.90;51.80;;;;;;5055945;28;20036;-76
2022/08/05 09:36:16;;;;;;;4.95;3.80;;;33.10;52.40;;;;;;5056140;28;20560;-75
2022/08/05 09:38:57;;;;;;;12.32;5.28;;;33.40;51.50;;;;;;5055317;28;20045;-74
2022/08/05 09:41:25;;;;;;;4.32;3.53;;;33.50;51.20;;;;;;5055108;28;20049;-76
2022/08/05 09:43:53;;;;;;;18.55;5.45;;;33.60;50.30;;;;;;5055825;28;20059;-76
2022/08/05 09:46:27;;;;;;;9.00;4.13;;;33.50;50.30;;;;;;5037770;28;20048;-76
2022/08/05 09:48:54;;;;;;;4.15;3.38;;;33.60;50.00;;;;;;5056117;28;20053;-77
2022/08/05 09:51:32;;;;;;;6.10;4.00;;;33.70;50.00;;;;;;5055431;28;20095;-76
2022/08/05 09:54:00;;;;;;;5.28;3.38;;;33.80;49.00;;;;;;5055863;28;20045;-76
2022/08/05 09:56:29;;;;;;;3.97;3.58;;;33.90;47.70;;;;;;5075842;28;20055;-75
2022/08/05 09:59:00;;;;;;;9.73;4.35;;;33.90;47.10;;;;;;5055598;28;20511;-76
2022/08/05 10:01:28;;;;;;;29.30;9.88;;;34.00;47.90;;;;;;5054940;28;20045;-76
2022/08/05 10:03:59;;;;;;;5.53;3.92;;;34.00;47.90;;;;;;5055398;28;20051;-76
2022/08/05 10:06:27;;;;;;;6.75;3.72;;;34.20;47.30;;;;;;5064482;28;20151;-76
2022/08/05 10:08:55;;;;;;;5.05;3.95;;;34.10;46.70;;;;;;5058288;28;20041;-76
2022/08/05 10:11:22;;;;;;;6.97;3.67;;;33.90;46.70;;;;;;5062428;28;20049;-75
2022/08/05 10:13:50;;;;;;;5.85;3.78;;;33.60;46.80;;;;;;5054787;28;20049;-75
2022/08/05 10:16:32;;;;;;;4.05;3.47;;;33.40;47.10;;;;;;5054526;28;20171;-76
2022/08/05 10:19:01;;;;;;;5.55;3.33;;;33.40;47.50;;;;;;5036047;28;20064;-75
2022/08/05 10:21:28;;;;;;;14.85;9.05;;;33.50;47.30;;;;;;5054940;28;20116;-76
2022/08/05 10:23:56;;;;;;;8.25;4.95;;;33.70;47.30;;;;;;5036335;28;20048;-75
2022/08/05 10:26:23;;;;;;;4.47;3.90;;;33.90;47.20;;;;;;5054607;28;20441;-75
2022/08/05 10:28:51;;;;;;;4.70;4.10;;;33.90;47.00;;;;;;5058829;28;20045;-76
2022/08/05 10:31:18;;;;;;;7.65;4.03;;;34.00;47.10;;;;;;5082879;28;20060;-76
2022/08/05 10:33:47;;;;;;;9.75;5.22;;;34.00;47.00;;;;;;5066464;28;20051;-76
2022/08/05 10:36:15;;;;;;;6.38;4.60;;;34.00;47.30;;;;;;5086834;28;20121;-77
2022/08/05 10:38:46;;;;;;;6.55;4.38;;;34.10;46.60;;;;;;5074553;28;20041;-77
2022/08/05 10:41:26;;;;;;;8.13;4.32;;;34.00;45.90;;;;;;5075018;28;20047;-76
2022/08/05 10:43:59;;;;;;;13.27;12.02;;;34.10;46.40;;;;;;5056011;28;20171;-77
2022/08/05 10:46:43;;;;;;;5.70;4.50;;;34.30;45.90;;;;;;5074962;28;20495;-76
2022/08/05 10:49:12;;;;;;;4.10;3.70;;;34.40;45.60;;;;;;5075544;28;20132;-76
2022/08/05 10:51:44;;;;;;;5.82;3.72;;;34.00;44.80;;;;;;5080408;28;20044;-76
2022/08/05 10:54:12;;;;;;;5.53;3.95;;;33.80;45.50;;;;;;5074140;28;20066;-76
2022/08/05 10:56:46;;;;;;;4.93;3.40;;;33.90;45.80;;;;;;5072228;28;20049;-75
2022/08/05 10:59:20;;;;;;;5.55;3.90;;;33.80;45.30;;;;;;5054067;28;20060;-75
2022/08/05 11:01:48;;;;;;;4.00;3.60;;;33.70;45.30;;;;;;5074137;28;20049;-75
2022/08/05 11:04:18;;;;;;;6.47;4.38;;;33.50;45.30;;;;;;5051849;28;20072;-76
2022/08/05 11:07:07;;;;;;;5.43;4.15;;;33.50;45.80;;;;;;5069443;28;20076;-75
2022/08/05 11:09:39;;;;;;;5.97;5.07;;;33.70;45.70;;;;;;5071906;28;20053;-76
2022/08/05 11:12:44;;;;;;;5.10;4.07;;;33.90;45.50;;;;;;5067513;28;20045;-76
2022/08/05 11:15:18;;;;;;;6.80;6.15;;;34.00;44.90;;;;;;5065559;28;20041;-77
2022/08/05 11:17:47;;;;;;;9.10;7.88;;;33.70;44.60;;;;;;5044387;28;20381;-77
2022/08/05 11:20:36;;;;;;;6.63;4.68;;;33.70;45.10;;;;;;5056938;28;20037;-77
2022/08/05 11:23:37;;;;;;;8.45;7.32;;;33.80;45.20;;;;;;5045512;28;20131;-75
2022/08/05 11:26:07;;;;;;;4.32;3.92;;;34.00;44.90;;;;;;5038205;28;20041;-75
2022/08/05 11:28:48;;;;;;;5.47;4.72;;;34.00;44.60;;;;;;5059514;28;20041;-76
2022/08/05 11:31:21;;;;;;;6.97;5.10;;;33.80;44.10;;;;;;5077984;28;20465;-75
2022/08/05 11:34:04;;;;;;;4.10;3.70;;;33.70;44.40;;;;;;5061312;28;20048;-77
2022/08/05 11:36:53;;;;;;;5.50;4.10;;;33.90;43.70;;;;;;5079264;28;20044;-75
2022/08/05 11:39:50;;;;;;;7.15;4.72;;;33.80;43.90;;;;;;5079095;28;20372;-77
2022/08/05 11:42:23;;;;;;;5.38;4.50;;;34.00;44.10;;;;;;5080069;28;20036;-75
2022/08/05 11:44:51;;;;;;;5.07;3.95;;;34.10;44.00;;;;;;5081409;28;20068;-74
2022/08/05 11:47:22;;;;;;;6.63;5.18;;;34.20;43.50;;;;;;5083351;28;20044;-76
2022/08/05 11:49:56;;;;;;;5.32;4.28;;;34.30;43.70;;;;;;5092091;28;20048;-75
2022/08/05 11:52:26;;;;;;;6.15;5.28;;;34.40;43.10;;;;;;5079163;28;20445;-76
2022/08/05 11:54:53;;;;;;;7.68;4.93;;;34.40;43.20;;;;;;5072690;28;20045;-76
2022/08/05 11:57:21;;;;;;;5.22;4.10;;;34.40;43.10;;;;;;5057128;28;20057;-78
2022/08/05 11:59:48;;;;;;;9.02;4.50;;;34.40;42.90;;;;;;5057811;28;20159;-77
2022/08/05 12:02:16;;;;;;;5.32;4.80;;;34.40;42.50;;;;;;5057298;28;20048;-76
2022/08/05 12:04:45;;;;;;;9.13;5.80;;;34.30;42.70;;;;;;5056489;28;20378;-75
2022/08/05 12:07:13;;;;;;;6.70;5.35;;;34.40;43.30;;;;;;5057624;28;20049;-76
2022/08/05 12:09:47;;;;;;;4.72;3.70;;;34.50;43.30;;;;;;5056812;28;20044;-76
2022/08/05 12:12:22;;;;;;;9.05;4.05;;;34.50;42.40;;;;;;5057224;28;20053;-76
2022/08/05 12:14:50;;;;;;;6.28;4.05;;;34.20;42.80;;;;;;5057539;28;20467;-76
2022/08/05 12:17:17;;;;;;;6.00;4.00;;;34.10;43.80;;;;;;5057374;28;20040;-75
2022/08/05 12:19:47;;;;;;;5.85;4.57;;;34.00;42.70;;;;;;5057101;28;20365;-76
2022/08/05 12:22:15;;;;;;;5.85;5.25;;;34.10;42.40;;;;;;5057126;28;20046;-76
2022/08/05 12:24:46;;;;;;;7.00;5.93;;;34.10;42.70;;;;;;5057400;28;20072;-75
2022/08/05 12:27:20;;;;;;;7.50;6.30;;;34.10;42.50;;;;;;5057398;28;20488;-75
2022/08/05 12:29:59;;;;;;;5.15;4.20;;;34.20;42.80;;;;;;5063445;28;20040;-75
2022/08/05 12:32:27;;;;;;;5.72;4.20;;;33.90;42.40;;;;;;5056817;28;20044;-75
2022/08/05 12:34:54;;;;;;;6.38;4.88;;;33.90;42.80;;;;;;5055518;28;20072;-74
2022/08/05 12:37:22;;;;;;;4.57;4.05;;;33.90;42.50;;;;;;5055973;28;20068;-76
2022/08/05 12:39:52;;;;;;;5.15;4.20;;;33.90;42.50;;;;;;5056346;28;20484;-77
2022/08/05 12:42:21;;;;;;;5.25;4.75;;;33.90;42.60;;;;;;5056621;28;20044;-76
2022/08/05 12:44:49;;;;;;;7.10;4.25;;;33.90;41.80;;;;;;5017003;28;20108;-75
2022/08/05 12:47:27;;;;;;;6.90;4.15;;;33.90;42.00;;;;;;5016837;28;20533;-77
2022/08/05 12:49:55;;;;;;;6.90;4.32;;;33.80;41.30;;;;;;5036594;28;20433;-75
2022/08/05 12:52:22;;;;;;;5.53;3.80;;;33.90;41.10;;;;;;5037203;28;20547;-74
2022/08/05 12:54:51;;;;;;;6.53;4.13;;;33.90;41.10;;;;;;5024859;28;20037;-75
2022/08/05 12:57:19;;;;;;;4.70;4.15;;;33.90;41.30;;;;;;5016689;28;20417;-76